Facebook

   
     
Pulvinar tempor cras amet ac turpis tristique tristique ... (read more) close

İNSECTA has 100516 registered users

Userlist

# Status Avatar Username Posts Karma Join date Last login Hits
601 OFFLINE cecelia05u16550's Avatar cecelia05u16550 0 0 12 Oca 2017 18:12 12 Oca 2017 18:12 130
602 OFFLINE mittie86554804's Avatar mittie86554804 0 0 12 Oca 2017 18:19 12 Oca 2017 18:19 155
603 OFFLINE iolavessels483's Avatar iolavessels483 0 0 12 Oca 2017 18:20 12 Oca 2017 18:20 149
604 OFFLINE ameliebly161929's Avatar ameliebly161929 0 0 12 Oca 2017 18:23 12 Oca 2017 18:23 145
605 OFFLINE calebtruesdale's Avatar calebtruesdale 0 0 12 Oca 2017 18:30 12 Oca 2017 18:30 146
606 OFFLINE kristinedyal855's Avatar kristinedyal855 0 0 12 Oca 2017 18:38 12 Oca 2017 18:38 147
607 OFFLINE grovermelson001's Avatar grovermelson001 0 0 12 Oca 2017 18:38 12 Oca 2017 18:38 150
608 OFFLINE christisnh52144's Avatar christisnh52144 0 0 12 Oca 2017 18:42 12 Oca 2017 18:42 150
609 OFFLINE owenbonython55's Avatar owenbonython55 0 0 12 Oca 2017 18:52 12 Oca 2017 18:52 146
610 OFFLINE kateneff6113237's Avatar kateneff6113237 0 0 12 Oca 2017 18:53 12 Oca 2017 18:53 137
611 OFFLINE andreascarron36's Avatar andreascarron36 0 0 12 Oca 2017 18:56 12 Oca 2017 18:56 147
612 OFFLINE elbertsommer94's Avatar elbertsommer94 0 0 12 Oca 2017 18:57 12 Oca 2017 18:57 149
613 OFFLINE brandyf46645361's Avatar brandyf46645361 0 0 12 Oca 2017 18:58 12 Oca 2017 19:15 146
614 OFFLINE merissalefevre's Avatar merissalefevre 0 0 12 Oca 2017 18:58 12 Oca 2017 18:58 140
615 OFFLINE judewofford3989's Avatar judewofford3989 0 0 12 Oca 2017 19:01 12 Oca 2017 19:01 139
616 OFFLINE cathleenbaylebr's Avatar cathleenbaylebr 0 0 12 Oca 2017 19:02 12 Oca 2017 19:02 149
617 OFFLINE devon2732065386's Avatar devon2732065386 0 0 12 Oca 2017 19:08 12 Oca 2017 19:08 150
618 OFFLINE kandacehuggard's Avatar kandacehuggard 0 0 12 Oca 2017 19:12 12 Oca 2017 19:12 142
619 OFFLINE leorachilton625's Avatar leorachilton625 0 0 12 Oca 2017 19:27 12 Oca 2017 19:27 145
620 OFFLINE alexandriahidal's Avatar alexandriahidal 0 0 12 Oca 2017 19:34 12 Oca 2017 19:34 147
621 OFFLINE meriwinslow275's Avatar meriwinslow275 0 0 12 Oca 2017 19:36 12 Oca 2017 19:36 172
622 OFFLINE magnoliabaylebr's Avatar magnoliabaylebr 0 0 12 Oca 2017 19:38 12 Oca 2017 19:38 155
623 OFFLINE billystarnes387's Avatar billystarnes387 0 0 12 Oca 2017 19:40 12 Oca 2017 19:40 146
624 OFFLINE estherneace871's Avatar estherneace871 0 0 12 Oca 2017 19:47 12 Oca 2017 19:47 144
625 OFFLINE kassiesharp1231's Avatar kassiesharp1231 0 0 12 Oca 2017 19:48 12 Oca 2017 19:48 152
626 OFFLINE julianeculpin99's Avatar julianeculpin99 0 0 12 Oca 2017 19:50 12 Oca 2017 19:50 151
627 OFFLINE tabithablakely1's Avatar tabithablakely1 0 0 12 Oca 2017 19:53 12 Oca 2017 19:53 142
628 OFFLINE aleidadiggles1's Avatar aleidadiggles1 0 0 12 Oca 2017 19:57 12 Oca 2017 19:57 156
629 OFFLINE jennykilvington's Avatar jennykilvington 0 0 12 Oca 2017 20:01 12 Oca 2017 20:01 145
630 OFFLINE antoinepaschke1's Avatar antoinepaschke1 0 0 12 Oca 2017 20:02 12 Oca 2017 20:02 157

Who Is Online

Total users online: 0 Members and 31 Guests Online
Legend:  Site Administrator Global Moderator Moderator Banned User Guest

Kunena Statistics

  • Toplum Üye: 100.5k
  • Son Üye elekhivr
  • Toplam Mesaj: 21
  • Toplam Konu: 14
  • Toplam Bölüm: 3
  • Toplam Kategori: 10
  • Bugün Açılan: 0
  • Dün Açılan: 0
  • Bugün Cevaplar: 0
  • Dün Cevaplar: 0

Custom HTML

Time to create page: 7.785 seconds

Copyright © 2013 İnsecta Haşere Kontrol Hizmetleri